Time;durP1;ratioP1;P1;durP2;ratioP2;P2;SDS_P1;SDS_P2;PMS_P1;PMS_P2;Temp;Humidity;BMP_temperature;BMP_pressure;BME280_temperature;BME280_humidity;BME280_pressure;Samples;Min_cycle;Max_cycle;Signal;HPM_P1;HPM_P2
2023/03/20 00:00:38;;;;;;;12.02;5.90;;;8.40;99.90;;;;;;4936567;29;20048;-45
2023/03/20 00:03:03;;;;;;;17.27;6.60;;;8.40;99.90;;;;;;4935138;29;20051;-48
2023/03/20 00:05:30;;;;;;;13.70;6.70;;;8.40;99.90;;;;;;4936240;29;20044;-47
2023/03/20 00:07:57;;;;;;;16.90;6.30;;;8.40;99.90;;;;;;4935158;29;20031;-49
2023/03/20 00:10:35;;;;;;;14.90;6.35;;;8.40;99.90;;;;;;4935739;29;20083;-49
2023/03/20 00:13:02;;;;;;;17.77;6.88;;;8.30;99.90;;;;;;4936248;29;20128;-50
2023/03/20 00:15:40;;;;;;;16.85;7.18;;;8.30;99.90;;;;;;4934745;29;20510;-48
2023/03/20 00:18:18;;;;;;;16.25;7.65;;;8.30;99.90;;;;;;4935665;29;20496;-48
2023/03/20 00:20:50;;;;;;;15.20;6.82;;;8.30;99.90;;;;;;4935303;29;20043;-46
2023/03/20 00:23:17;;;;;;;16.42;6.00;;;8.30;99.90;;;;;;4933980;29;20078;-48
2023/03/20 00:25:46;;;;;;;18.25;6.35;;;8.20;99.90;;;;;;4935719;29;20042;-46
2023/03/20 00:28:37;;;;;;;17.67;5.82;;;8.30;99.90;;;;;;4935571;29;20735;-47
2023/03/20 00:31:05;;;;;;;14.90;5.28;;;8.20;99.90;;;;;;4935882;29;20047;-49
2023/03/20 00:33:31;;;;;;;14.32;5.75;;;8.30;99.90;;;;;;4934895;29;20102;-46
2023/03/20 00:35:57;;;;;;;13.25;5.30;;;8.20;99.90;;;;;;4935551;29;20050;-46
2023/03/20 00:38:24;;;;;;;16.48;5.75;;;8.20;99.90;;;;;;4935898;29;20098;-46
2023/03/20 00:40:50;;;;;;;13.18;6.28;;;8.50;99.90;;;;;;4918037;29;20036;-46
2023/03/20 00:43:16;;;;;;;14.18;6.93;;;8.10;99.90;;;;;;4935955;29;20534;-45
2023/03/20 00:45:44;;;;;;;15.18;6.85;;;8.20;99.90;;;;;;4930181;29;20494;-49
2023/03/20 00:48:14;;;;;;;14.20;6.95;;;8.20;99.90;;;;;;4915486;29;20123;-50
2023/03/20 00:50:40;;;;;;;18.85;8.02;;;8.20;99.90;;;;;;4916773;29;20123;-50
2023/03/20 00:53:10;;;;;;;18.17;8.32;;;8.30;99.90;;;;;;4923207;29;20100;-48
2023/03/20 00:55:36;;;;;;;18.45;8.43;;;8.20;99.90;;;;;;4923747;29;20050;-47
2023/03/20 00:58:04;;;;;;;20.35;8.80;;;8.20;99.90;;;;;;4922554;29;20078;-47
2023/03/20 01:00:44;;;;;;;21.77;9.95;;;8.10;99.90;;;;;;4916464;29;20038;-48
2023/03/20 01:03:20;;;;;;;19.35;10.52;;;8.20;99.90;;;;;;4902368;29;20155;-50
2023/03/20 01:05:46;;;;;;;23.63;9.93;;;8.20;99.90;;;;;;4916274;29;20055;-47
2023/03/20 01:08:21;;;;;;;25.38;10.30;;;8.20;99.90;;;;;;4916505;29;20468;-48
2023/03/20 01:10:51;;;;;;;21.33;9.65;;;8.20;99.90;;;;;;4915824;29;20047;-50
2023/03/20 01:13:26;;;;;;;25.10;11.02;;;8.10;99.90;;;;;;4916058;29;20044;-49
2023/03/20 01:15:53;;;;;;;26.75;10.65;;;8.20;99.90;;;;;;4924758;29;20077;-49
2023/03/20 01:18:20;;;;;;;22.40;10.60;;;8.10;99.90;;;;;;4916163;29;20052;-48
2023/03/20 01:20:47;;;;;;;22.65;10.68;;;8.10;99.90;;;;;;4929271;29;20407;-47
2023/03/20 01:23:13;;;;;;;27.25;11.10;;;8.10;99.90;;;;;;4920952;29;20500;-45
2023/03/20 01:25:39;;;;;;;21.38;10.85;;;8.20;99.90;;;;;;4915964;29;20085;-47
2023/03/20 01:28:18;;;;;;;22.92;11.32;;;8.10;99.90;;;;;;4915761;29;20043;-48
2023/03/20 01:30:45;;;;;;;23.73;11.05;;;8.20;99.90;;;;;;4917048;29;20040;-49
2023/03/20 01:33:16;;;;;;;23.00;11.45;;;8.10;99.90;;;;;;4927568;29;20708;-48
2023/03/20 01:35:42;;;;;;;24.02;11.55;;;8.10;99.90;;;;;;4915925;29;20071;-46
2023/03/20 01:38:12;;;;;;;27.00;11.48;;;8.10;99.90;;;;;;4923691;29;20433;-45
2023/03/20 01:40:49;;;;;;;23.33;11.07;;;8.20;99.90;;;;;;4915222;29;20076;-48
2023/03/20 01:43:19;;;;;;;24.00;11.85;;;8.20;99.90;;;;;;4920675;29;20090;-47
2023/03/20 01:45:57;;;;;;;24.23;12.40;;;8.20;99.90;;;;;;4926587;29;20047;-47
2023/03/20 01:48:26;;;;;;;22.83;10.02;;;8.10;99.90;;;;;;4933332;29;20035;-45
2023/03/20 01:50:52;;;;;;;24.45;12.13;;;8.20;99.90;;;;;;4933670;29;20496;-46
2023/03/20 01:53:26;;;;;;;20.35;10.93;;;8.10;99.90;;;;;;4933647;29;20039;-48
2023/03/20 01:55:53;;;;;;;;;;;8.20;99.90;;;;;;4934052;29;20050;-47
2023/03/20 01:58:29;;;;;;;20.02;11.10;;;8.10;99.90;;;;;;4933144;29;20013;-47
2023/03/20 02:00:56;;;;;;;22.00;10.82;;;8.00;99.90;;;;;;4933250;29;20050;-46
2023/03/20 02:03:22;;;;;;;23.10;12.38;;;8.10;99.90;;;;;;4933245;29;20049;-48
2023/03/20 02:05:49;;;;;;;20.23;10.95;;;8.10;99.90;;;;;;4932158;29;20564;-52
2023/03/20 02:08:27;;;;;;;18.88;10.70;;;8.20;99.90;;;;;;4933260;29;20484;-45
2023/03/20 02:10:55;;;;;;;21.02;10.65;;;8.10;99.90;;;;;;4932063;29;20051;-48
2023/03/20 02:13:22;;;;;;;22.65;10.65;;;8.10;99.90;;;;;;4933034;29;20553;-45
2023/03/20 02:16:06;;;;;;;24.05;11.68;;;8.10;99.90;;;;;;4932543;29;20122;-45
2023/03/20 02:18:32;;;;;;;24.75;11.30;;;8.10;99.90;;;;;;4933101;29;20055;-44
2023/03/20 02:21:55;;;;;;;22.60;10.27;;;8.10;99.90;;;;;;4931542;29;20076;-46
2023/03/20 02:24:51;;;;;;;23.88;9.93;;;8.10;99.90;;;;;;4891863;29;20457;-46
2023/03/20 02:27:28;;;;;;;18.45;9.45;;;8.10;99.90;;;;;;4892436;29;20057;-46
2023/03/20 02:30:23;;;;;;;20.90;9.85;;;8.00;99.90;;;;;;4926257;29;20496;-44
2023/03/20 02:33:15;;;;;;;20.65;9.60;;;8.10;99.90;;;;;;4932066;29;20527;-47
2023/03/20 02:35:55;;;;;;;23.23;9.60;;;8.10;99.90;;;;;;4932696;29;20502;-49
2023/03/20 02:38:30;;;;;;;17.75;9.18;;;8.10;99.90;;;;;;4931594;29;20046;-49
2023/03/20 02:41:07;;;;;;;20.50;9.50;;;8.10;99.90;;;;;;4932320;29;20070;-46
2023/03/20 02:43:39;;;;;;;19.00;8.70;;;8.10;99.90;;;;;;4932365;29;20087;-46
2023/03/20 02:46:14;;;;;;;22.23;8.70;;;8.00;99.90;;;;;;4896076;29;1090704;-48
2023/03/20 02:49:06;;;;;;;16.73;8.48;;;8.10;99.90;;;;;;4933492;29;20135;-46
2023/03/20 02:51:39;;;;;;;18.85;8.40;;;8.00;99.90;;;;;;4924691;29;20110;-46
2023/03/20 02:54:05;;;;;;;17.85;8.75;;;8.00;99.90;;;;;;4933627;29;20032;-47
2023/03/20 02:56:57;;;;;;;18.83;8.25;;;8.10;99.90;;;;;;4933637;29;20134;-47
2023/03/20 02:59:31;;;;;;;15.38;7.93;;;8.10;99.90;;;;;;4932352;29;20059;-46
2023/03/20 03:02:09;;;;;;;17.67;7.53;;;8.00;99.90;;;;;;4933206;29;20055;-47
2023/03/20 03:04:40;;;;;;;24.08;8.48;;;8.10;99.90;;;;;;4933559;29;20502;-47
2023/03/20 03:07:09;;;;;;;14.57;7.20;;;8.10;99.90;;;;;;4933375;29;20040;-47
2023/03/20 03:09:45;;;;;;;15.02;7.55;;;8.00;99.90;;;;;;4932189;29;20047;-46
2023/03/20 03:12:20;;;;;;;16.95;7.25;;;8.10;99.90;;;;;;4932289;29;20047;-46
2023/03/20 03:14:50;;;;;;;17.95;6.70;;;8.00;99.90;;;;;;4933617;29;20044;-47
2023/03/20 03:17:18;;;;;;;18.35;7.20;;;8.00;99.90;;;;;;4933196;29;20520;-47
2023/03/20 03:19:51;;;;;;;17.73;7.30;;;8.10;99.90;;;;;;4930958;29;20039;-46
2023/03/20 03:22:18;;;;;;;16.25;6.97;;;8.10;99.90;;;;;;4933407;29;20066;-48
2023/03/20 03:24:47;;;;;;;13.70;7.07;;;8.00;99.90;;;;;;4936824;29;20502;-50
2023/03/20 03:27:17;;;;;;;17.27;7.40;;;8.00;99.90;;;;;;4937230;29;20047;-50
2023/03/20 03:29:49;;;;;;;15.05;7.03;;;8.00;99.90;;;;;;4937106;29;20054;-49
2023/03/20 03:32:39;;;;;;;13.35;6.85;;;7.90;99.90;;;;;;4936996;29;20042;-50
2023/03/20 03:35:06;;;;;;;18.52;6.80;;;8.00;99.90;;;;;;4936689;29;20464;-47
2023/03/20 03:38:03;;;;;;;15.23;7.18;;;7.90;99.90;;;;;;4937050;29;20122;-48
2023/03/20 03:40:59;;;;;;;21.02;8.13;;;7.90;99.90;;;;;;4936580;29;20043;-50
2023/03/20 03:43:42;;;;;;;16.85;7.70;;;8.00;99.90;;;;;;4919649;29;20036;-47
2023/03/20 03:46:19;;;;;;;15.48;7.30;;;7.90;99.90;;;;;;4936549;29;20048;-48
2023/03/20 03:48:52;;;;;;;15.98;7.40;;;7.90;99.90;;;;;;4936872;29;20039;-50
2023/03/20 03:51:22;;;;;;;15.30;7.18;;;7.90;99.90;;;;;;4936669;29;20103;-51
2023/03/20 03:53:58;;;;;;;14.10;7.60;;;7.80;99.90;;;;;;4935245;29;20051;-47
2023/03/20 03:56:27;;;;;;;16.58;7.65;;;7.80;99.90;;;;;;4919465;29;20043;-46
2023/03/20 03:58:58;;;;;;;18.65;8.27;;;7.70;99.90;;;;;;4936758;29;20476;-49
2023/03/20 04:01:26;;;;;;;20.48;9.77;;;7.70;99.90;;;;;;4936637;29;20455;-49
2023/03/20 04:03:56;;;;;;;23.70;10.60;;;7.70;99.90;;;;;;4933232;29;20066;-48
2023/03/20 04:06:24;;;;;;;24.25;10.82;;;7.70;99.90;;;;;;4935982;29;20054;-49
2023/03/20 04:08:50;;;;;;;22.00;10.45;;;7.70;99.90;;;;;;4919225;29;20122;-47
2023/03/20 04:11:19;;;;;;;23.33;10.60;;;7.90;99.90;;;;;;4936070;29;20453;-44
2023/03/20 04:13:49;;;;;;;23.85;10.30;;;7.80;99.90;;;;;;4936298;29;20063;-45
2023/03/20 04:16:16;;;;;;;18.00;9.68;;;7.70;99.90;;;;;;4936164;29;20047;-46
2023/03/20 04:18:42;;;;;;;20.00;10.13;;;7.60;99.90;;;;;;4936193;29;20400;-48
2023/03/20 04:21:08;;;;;;;21.75;10.57;;;7.60;99.90;;;;;;4934663;29;20498;-50
2023/03/20 04:23:34;;;;;;;19.08;10.02;;;7.60;99.90;;;;;;4936154;29;20148;-46
2023/03/20 04:26:01;;;;;;;23.65;10.45;;;7.70;99.90;;;;;;4936291;29;20393;-46
2023/03/20 04:28:26;;;;;;;17.95;10.02;;;7.60;99.90;;;;;;4935919;29;20052;-47
2023/03/20 04:30:53;;;;;;;19.50;10.57;;;7.60;99.90;;;;;;4936246;29;20042;-44
2023/03/20 04:33:19;;;;;;;20.00;10.77;;;7.60;99.90;;;;;;4935792;29;20607;-46
2023/03/20 04:35:45;;;;;;;20.08;10.07;;;7.60;99.90;;;;;;4935540;29;20103;-47
2023/03/20 04:38:11;;;;;;;18.35;11.15;;;7.60;99.90;;;;;;4936089;29;20048;-48
2023/03/20 04:40:37;;;;;;;24.40;11.60;;;7.60;99.90;;;;;;4917165;29;20044;-46
2023/03/20 04:43:03;;;;;;;20.90;11.38;;;7.50;99.90;;;;;;4935913;29;20103;-47
2023/03/20 04:45:29;;;;;;;21.75;10.88;;;7.60;99.90;;;;;;4935284;29;20088;-48
2023/03/20 04:47:54;;;;;;;23.60;11.45;;;7.50;99.90;;;;;;4935746;29;20396;-48
2023/03/20 04:50:20;;;;;;;19.05;10.13;;;7.50;99.90;;;;;;4933283;29;20038;-49
2023/03/20 04:52:46;;;;;;;20.05;11.30;;;7.50;99.90;;;;;;4935738;29;20080;-49
2023/03/20 04:55:12;;;;;;;19.88;10.32;;;7.50;99.90;;;;;;4935481;29;20198;-49
2023/03/20 04:57:37;;;;;;;18.27;10.27;;;7.50;99.90;;;;;;4935563;29;20082;-45
2023/03/20 05:00:04;;;;;;;19.05;11.15;;;7.50;99.90;;;;;;4934360;29;20448;-44
2023/03/20 05:02:30;;;;;;;19.58;10.88;;;7.50;99.90;;;;;;4935462;29;20031;-49
2023/03/20 05:04:55;;;;;;;22.25;11.38;;;7.40;99.90;;;;;;4918267;29;20043;-46
2023/03/20 05:07:21;;;;;;;20.60;10.27;;;7.40;99.90;;;;;;4918341;29;20087;-48
2023/03/20 05:09:47;;;;;;;18.17;10.52;;;7.50;99.90;;;;;;4935443;29;20050;-46
2023/03/20 05:12:13;;;;;;;22.30;10.77;;;7.40;99.90;;;;;;4934703;29;20028;-48
2023/03/20 05:14:39;;;;;;;20.75;10.90;;;7.50;99.90;;;;;;4920303;29;20040;-47
2023/03/20 05:17:05;;;;;;;19.92;10.95;;;7.40;99.90;;;;;;4935298;29;20055;-49
2023/03/20 05:19:30;;;;;;;21.80;10.35;;;7.50;99.90;;;;;;4918313;29;20048;-47
2023/03/20 05:21:56;;;;;;;21.42;9.73;;;7.50;99.90;;;;;;4935151;29;20062;-47
2023/03/20 05:24:22;;;;;;;20.17;10.18;;;7.50;99.90;;;;;;4933697;29;20090;-47
2023/03/20 05:26:47;;;;;;;26.33;10.50;;;7.50;99.90;;;;;;4935018;29;20047;-47
2023/03/20 05:29:13;;;;;;;16.75;9.65;;;7.50;99.90;;;;;;4933838;29;20428;-48
2023/03/20 05:31:39;;;;;;;21.08;9.77;;;7.50;99.90;;;;;;4934932;29;20391;-49
2023/03/20 05:34:05;;;;;;;14.95;9.02;;;7.50;99.90;;;;;;4932878;29;20082;-48
2023/03/20 05:36:31;;;;;;;16.92;9.35;;;7.50;99.90;;;;;;4933416;29;20047;-46
2023/03/20 05:38:56;;;;;;;15.32;9.00;;;7.50;99.90;;;;;;4933300;29;20050;-49
2023/03/20 05:41:22;;;;;;;18.83;9.20;;;7.50;99.90;;;;;;4934493;29;20035;-48
2023/03/20 05:43:48;;;;;;;14.93;8.40;;;7.40;99.90;;;;;;4917391;29;20045;-48
2023/03/20 05:46:15;;;;;;;21.30;9.88;;;7.50;99.90;;;;;;4933534;29;20186;-50
2023/03/20 05:48:40;;;;;;;20.02;9.55;;;7.40;99.90;;;;;;4934358;29;20114;-49
2023/03/20 05:51:06;;;;;;;17.00;8.93;;;7.50;99.90;;;;;;4934238;29;20479;-48
2023/03/20 05:53:32;;;;;;;20.15;9.95;;;7.50;99.90;;;;;;4934552;29;20031;-45
2023/03/20 05:55:58;;;;;;;20.42;8.90;;;7.40;99.90;;;;;;4934680;29;20040;-47
2023/03/20 05:58:24;;;;;;;18.63;10.05;;;7.40;99.90;;;;;;4933131;29;20044;-46
2023/03/20 06:00:49;;;;;;;20.35;10.10;;;7.40;99.90;;;;;;4934398;29;20130;-45
2023/03/20 06:03:15;;;;;;;19.40;10.07;;;7.40;99.90;;;;;;4933165;29;20039;-46
2023/03/20 06:05:41;;;;;;;19.90;10.45;;;7.40;99.90;;;;;;4934166;29;20055;-47
2023/03/20 06:08:06;;;;;;;20.85;10.82;;;7.40;99.90;;;;;;4926180;29;20107;-49
2023/03/20 06:10:32;;;;;;;21.67;11.07;;;7.40;99.90;;;;;;4934211;29;20354;-48
2023/03/20 06:12:59;;;;;;;19.95;10.13;;;7.40;99.90;;;;;;4934071;29;20087;-49
2023/03/20 06:15:28;;;;;;;20.40;10.80;;;7.50;99.90;;;;;;4934228;29;20071;-49
2023/03/20 06:17:55;;;;;;;20.58;10.68;;;7.50;99.90;;;;;;4933896;29;20047;-48
2023/03/20 06:20:21;;;;;;;22.35;11.13;;;7.50;99.90;;;;;;4934055;29;20046;-47
2023/03/20 06:22:46;;;;;;;21.77;10.75;;;7.50;99.90;;;;;;4933981;29;20047;-47
2023/03/20 06:25:13;;;;;;;21.98;10.55;;;7.60;99.90;;;;;;4933808;29;20047;-47
2023/03/20 06:27:38;;;;;;;22.90;11.15;;;7.60;99.90;;;;;;4933539;29;20038;-47
2023/03/20 06:30:05;;;;;;;23.35;10.70;;;7.50;99.90;;;;;;4930435;29;20048;-49
2023/03/20 06:32:30;;;;;;;22.45;10.52;;;7.50;99.90;;;;;;4933424;29;20047;-49
2023/03/20 06:34:56;;;;;;;21.63;10.90;;;7.60;99.90;;;;;;4916600;29;20039;-48
2023/03/20 06:37:22;;;;;;;21.77;11.57;;;7.50;99.90;;;;;;4933976;29;20703;-47
2023/03/20 06:39:48;;;;;;;24.85;11.23;;;7.60;99.90;;;;;;4932548;29;20452;-47
2023/03/20 06:42:15;;;;;;;25.30;11.90;;;7.60;99.90;;;;;;4932331;29;20044;-48
2023/03/20 06:44:41;;;;;;;23.33;11.32;;;7.50;99.90;;;;;;4931310;29;20082;-48
2023/03/20 06:47:07;;;;;;;24.48;11.00;;;7.60;99.90;;;;;;4932608;29;20476;-48
2023/03/20 06:49:32;;;;;;;22.13;12.23;;;7.60;99.90;;;;;;4932319;29;20046;-48
2023/03/20 06:51:58;;;;;;;24.15;11.60;;;7.60;99.90;;;;;;4933559;29;20066;-49
2023/03/20 06:54:25;;;;;;;20.23;10.13;;;7.60;99.90;;;;;;4933538;29;20039;-48
2023/03/20 06:56:51;;;;;;;26.52;12.07;;;7.60;99.90;;;;;;4932058;29;20062;-49
2023/03/20 06:59:16;;;;;;;24.10;10.70;;;7.60;99.90;;;;;;4933293;29;20027;-47
2023/03/20 07:01:42;;;;;;;25.02;10.75;;;7.60;99.90;;;;;;4933257;29;20044;-51
2023/03/20 07:04:08;;;;;;;23.20;11.35;;;7.60;99.90;;;;;;4932226;29;20047;-46
2023/03/20 07:06:34;;;;;;;27.20;11.25;;;7.60;99.90;;;;;;4933571;29;20127;-46
2023/03/20 07:09:00;;;;;;;23.45;10.82;;;7.60;99.90;;;;;;4916325;29;20391;-46
2023/03/20 07:11:27;;;;;;;22.48;11.23;;;7.70;99.90;;;;;;4931628;29;20619;-48
2023/03/20 07:13:53;;;;;;;26.13;11.73;;;7.70;99.90;;;;;;4931953;29;20043;-48
2023/03/20 07:16:18;;;;;;;26.63;12.27;;;7.70;99.90;;;;;;4916053;29;20099;-51
2023/03/20 07:18:44;;;;;;;22.15;11.18;;;7.70;99.90;;;;;;4932254;29;20463;-49
2023/03/20 07:21:19;;;;;;;22.70;10.63;;;7.70;99.90;;;;;;4933532;29;20042;-49
2023/03/20 07:23:44;;;;;;;23.90;12.07;;;7.70;99.90;;;;;;4933367;29;20543;-50
2023/03/20 07:26:11;;;;;;;20.95;11.45;;;7.80;99.90;;;;;;4932556;29;20052;-50
2023/03/20 07:28:36;;;;;;;22.00;11.15;;;7.80;99.90;;;;;;4931898;29;20040;-50
2023/03/20 07:31:02;;;;;;;25.02;12.13;;;7.80;99.90;;;;;;4931536;29;20431;-49
2023/03/20 07:33:28;;;;;;;24.00;11.90;;;7.90;99.90;;;;;;4930353;29;20059;-47
2023/03/20 07:35:54;;;;;;;22.90;11.48;;;7.90;99.90;;;;;;4932253;29;20135;-50
2023/03/20 07:38:21;;;;;;;19.63;11.40;;;7.90;99.90;;;;;;4933048;29;20491;-49
2023/03/20 07:40:47;;;;;;;23.42;11.30;;;8.00;99.90;;;;;;4927676;29;20405;-52
2023/03/20 07:43:16;;;;;;;20.42;11.25;;;8.00;99.90;;;;;;4931618;29;20070;-49
2023/03/20 07:45:42;;;;;;;18.50;10.07;;;8.00;99.90;;;;;;4915738;29;20051;-51
2023/03/20 07:48:08;;;;;;;22.08;11.13;;;8.10;99.90;;;;;;4933034;29;20107;-50
2023/03/20 07:50:33;;;;;;;25.70;11.45;;;8.10;99.90;;;;;;4926191;29;20036;-51
2023/03/20 07:52:59;;;;;;;24.77;11.43;;;8.10;99.90;;;;;;4927799;29;20054;-50
2023/03/20 07:55:25;;;;;;;23.52;11.80;;;8.20;99.90;;;;;;4930010;29;20107;-49
2023/03/20 07:57:51;;;;;;;22.73;11.63;;;8.20;99.90;;;;;;4929503;29;20052;-49
2023/03/20 08:00:17;;;;;;;19.45;11.48;;;8.20;99.90;;;;;;4930048;29;20118;-50
2023/03/20 08:02:43;;;;;;;22.20;11.85;;;8.30;99.90;;;;;;4930308;29;20562;-47
2023/03/20 08:05:09;;;;;;;19.80;11.40;;;8.30;99.90;;;;;;4929180;29;20036;-48
2023/03/20 08:07:35;;;;;;;23.25;12.88;;;8.30;99.90;;;;;;4930454;29;20098;-49
2023/03/20 08:10:03;;;;;;;23.13;11.90;;;8.40;99.90;;;;;;4932513;29;20039;-47
2023/03/20 08:12:29;;;;;;;24.00;12.35;;;8.50;99.90;;;;;;4933265;29;20047;-46
2023/03/20 08:14:54;;;;;;;20.67;11.75;;;8.50;99.90;;;;;;4933385;29;20043;-46
2023/03/20 08:17:20;;;;;;;23.52;12.02;;;8.60;99.90;;;;;;4934230;29;20043;-45
2023/03/20 08:19:46;;;;;;;23.98;12.70;;;8.60;99.90;;;;;;4933827;29;20134;-46
2023/03/20 08:22:12;;;;;;;20.73;12.30;;;8.60;99.90;;;;;;4933616;29;20365;-50
2023/03/20 08:24:37;;;;;;;19.65;11.65;;;8.70;99.90;;;;;;4933021;29;20054;-50
2023/03/20 08:27:03;;;;;;;23.52;12.27;;;8.70;99.90;;;;;;4933667;29;20391;-49
2023/03/20 08:29:29;;;;;;;21.90;12.57;;;8.70;99.90;;;;;;4933760;29;20063;-49
2023/03/20 08:31:56;;;;;;;20.67;12.25;;;8.80;99.90;;;;;;4934007;29;20036;-50
2023/03/20 08:34:22;;;;;;;20.27;12.15;;;8.80;99.90;;;;;;4934033;29;20035;-47
2023/03/20 08:36:47;;;;;;;22.30;11.52;;;8.80;99.90;;;;;;4932981;29;20048;-48
2023/03/20 08:39:13;;;;;;;20.17;11.35;;;8.80;99.90;;;;;;4932991;29;20043;-47
2023/03/20 08:41:42;;;;;;;23.83;11.13;;;8.90;99.90;;;;;;4933235;29;20407;-50
2023/03/20 08:44:08;;;;;;;25.35;11.93;;;9.00;99.90;;;;;;4932158;29;20047;-47
2023/03/20 08:46:33;;;;;;;21.30;11.80;;;9.00;99.90;;;;;;4933668;29;20451;-49
2023/03/20 08:48:59;;;;;;;18.35;11.10;;;9.10;99.90;;;;;;4933368;29;20044;-52
2023/03/20 08:51:26;;;;;;;17.60;9.88;;;9.20;99.90;;;;;;4932298;29;20044;-48
2023/03/20 08:53:52;;;;;;;20.67;10.80;;;9.20;99.90;;;;;;4933458;29;20055;-49
2023/03/20 08:56:17;;;;;;;18.27;11.02;;;9.30;99.90;;;;;;4932492;29;20563;-50
2023/03/20 08:58:43;;;;;;;20.08;10.68;;;9.30;99.90;;;;;;4931132;29;20039;-47
2023/03/20 09:01:09;;;;;;;18.65;9.85;;;9.40;99.90;;;;;;4933034;29;20047;-50
2023/03/20 09:03:36;;;;;;;19.65;10.50;;;9.40;99.90;;;;;;4932974;29;20067;-46
2023/03/20 09:06:05;;;;;;;18.58;10.05;;;9.50;99.90;;;;;;4932945;29;20090;-46
2023/03/20 09:08:31;;;;;;;19.52;10.88;;;10.30;99.90;;;;;;4931463;29;20106;-49
2023/03/20 09:10:57;;;;;;;18.98;10.35;;;9.60;99.90;;;;;;4929545;29;20043;-47
2023/03/20 09:13:24;;;;;;;16.75;10.05;;;9.60;99.90;;;;;;4929232;29;20448;-52
2023/03/20 09:15:50;;;;;;;18.65;10.45;;;9.70;99.90;;;;;;4932100;29;20392;-47
2023/03/20 09:18:17;;;;;;;18.65;9.98;;;9.70;99.90;;;;;;4930652;29;20491;-46
2023/03/20 09:20:44;;;;;;;19.60;10.25;;;9.80;99.90;;;;;;4913696;29;20050;-48
2023/03/20 09:23:10;;;;;;;22.27;10.07;;;9.90;99.90;;;;;;4931695;29;20059;-47
2023/03/20 09:25:35;;;;;;;18.55;9.85;;;9.90;99.90;;;;;;4931645;29;20070;-48
2023/03/20 09:28:01;;;;;;;16.95;9.07;;;10.00;99.90;;;;;;4931114;29;20042;-45
2023/03/20 09:30:27;;;;;;;19.48;10.07;;;11.10;99.90;;;;;;4931038;29;20039;-50
2023/03/20 09:32:52;;;;;;;21.15;10.38;;;10.10;99.90;;;;;;4932369;29;20447;-50
2023/03/20 09:35:18;;;;;;;18.92;9.25;;;10.10;99.90;;;;;;4930880;29;20055;-46
2023/03/20 09:37:44;;;;;;;19.45;8.90;;;10.20;99.90;;;;;;4932954;29;20071;-49
2023/03/20 09:40:25;;;;;;;14.65;9.13;;;10.20;99.90;;;;;;4913972;29;20402;-50
2023/03/20 09:42:54;;;;;;;18.17;9.07;;;10.20;99.90;;;;;;4930113;29;20048;-51
2023/03/20 09:45:36;;;;;;;19.10;8.70;;;10.20;99.90;;;;;;4915189;29;20439;-47
2023/03/20 09:48:20;;;;;;;20.13;9.25;;;10.20;99.90;;;;;;4916716;29;20408;-48
2023/03/20 09:51:10;;;;;;;17.33;8.95;;;10.20;99.90;;;;;;4931871;29;20127;-49
2023/03/20 09:53:45;;;;;;;19.35;8.65;;;10.20;99.90;;;;;;4930797;29;20106;-47
2023/03/20 09:56:25;;;;;;;15.57;8.65;;;10.30;99.90;;;;;;4929708;29;20099;-50
2023/03/20 09:58:55;;;;;;;15.73;8.40;;;10.20;99.90;;;;;;4931317;29;20550;-48
2023/03/20 10:01:30;;;;;;;16.92;7.75;;;10.20;99.90;;;;;;4931753;29;20035;-45
2023/03/20 10:03:58;;;;;;;16.40;8.35;;;10.10;99.90;;;;;;4931104;29;20119;-51
2023/03/20 10:06:24;;;;;;;17.35;7.85;;;10.10;99.90;;;;;;4931274;29;20044;-45
2023/03/20 10:08:50;;;;;;;15.38;7.72;;;10.00;99.90;;;;;;4931938;29;20510;-45
2023/03/20 10:11:43;;;;;;;14.23;7.82;;;10.00;99.90;;;;;;4931158;29;20040;-45
2023/03/20 10:14:21;;;;;;;19.58;8.65;;;9.90;99.90;;;;;;4931950;29;20051;-45
2023/03/20 10:17:01;;;;;;;18.95;8.95;;;9.90;99.90;;;;;;4931897;29;20046;-46
2023/03/20 10:19:30;;;;;;;14.23;8.35;;;9.90;99.90;;;;;;4931696;29;20073;-49
2023/03/20 10:22:30;;;;;;;19.48;8.00;;;9.90;99.90;;;;;;4932005;29;20048;-49
2023/03/20 10:25:22;;;;;;;18.60;8.13;;;9.90;99.90;;;;;;4930130;29;20040;-47
2023/03/20 10:27:51;;;;;;;20.40;8.45;;;9.90;99.90;;;;;;4931399;29;20055;-49
2023/03/20 10:30:43;;;;;;;14.57;7.25;;;9.90;99.90;;;;;;4931343;29;21271;-46
2023/03/20 10:33:11;;;;;;;14.50;7.53;;;9.80;99.90;;;;;;4930569;29;20051;-49
2023/03/20 10:36:00;;;;;;;16.15;7.50;;;9.70;99.90;;;;;;4931448;29;20095;-48
2023/03/20 10:38:53;;;;;;;20.15;7.97;;;9.70;99.90;;;;;;4929933;29;20052;-47
2023/03/20 10:41:23;;;;;;;15.55;7.38;;;9.70;99.90;;;;;;4928595;29;20055;-49
2023/03/20 10:43:51;;;;;;;13.60;6.80;;;9.70;99.90;;;;;;4931272;29;20082;-49
2023/03/20 10:46:34;;;;;;;12.70;6.45;;;9.80;99.90;;;;;;4930833;29;20059;-47
2023/03/20 10:49:12;;;;;;;13.18;7.03;;;9.80;99.90;;;;;;4930556;29;20040;-48
2023/03/20 10:51:48;;;;;;;15.48;5.65;;;9.80;99.90;;;;;;4929281;29;20039;-48
2023/03/20 10:54:19;;;;;;;14.18;5.50;;;9.90;99.90;;;;;;4930428;29;20089;-50
2023/03/20 10:56:48;;;;;;;15.52;6.28;;;9.90;99.90;;;;;;4931051;29;20394;-49
2023/03/20 10:59:19;;;;;;;11.27;4.43;;;9.90;99.90;;;;;;4931042;29;20054;-46
2023/03/20 11:01:45;;;;;;;8.70;4.45;;;9.90;99.90;;;;;;4930020;29;20540;-46
2023/03/20 11:04:11;;;;;;;9.93;4.35;;;9.90;99.90;;;;;;4931324;29;20154;-48
2023/03/20 11:07:02;;;;;;;13.30;4.28;;;9.90;99.90;;;;;;4931122;29;20047;-47
2023/03/20 11:09:31;;;;;;;10.98;4.72;;;9.90;99.90;;;;;;4930531;29;20403;-45
2023/03/20 11:12:00;;;;;;;11.10;4.30;;;9.90;99.90;;;;;;4913772;29;20056;-45
2023/03/20 11:14:32;;;;;;;10.68;4.35;;;10.00;99.90;;;;;;4930699;29;20043;-46
2023/03/20 11:17:02;;;;;;;12.77;4.50;;;10.00;99.90;;;;;;4931192;29;20115;-48
2023/03/20 11:19:33;;;;;;;10.98;5.28;;;10.00;99.90;;;;;;4931013;29;20070;-45
2023/03/20 11:22:06;;;;;;;9.02;4.80;;;10.00;99.90;;;;;;4914296;29;20073;-45
2023/03/20 11:24:43;;;;;;;11.88;4.80;;;10.00;99.90;;;;;;4931112;29;20051;-47
2023/03/20 11:27:13;;;;;;;15.80;5.75;;;10.00;99.90;;;;;;4913525;29;20075;-45
2023/03/20 11:29:41;;;;;;;12.20;5.13;;;10.00;99.90;;;;;;4928551;29;20380;-46
2023/03/20 11:32:30;;;;;;;13.27;6.35;;;9.90;99.90;;;;;;4927768;29;20086;-44
2023/03/20 11:35:09;;;;;;;12.80;4.45;;;9.90;99.90;;;;;;4930659;29;20103;-46
2023/03/20 11:37:41;;;;;;;9.15;4.30;;;9.90;99.90;;;;;;4929928;29;20488;-46
2023/03/20 11:40:21;;;;;;;14.48;4.88;;;9.90;99.90;;;;;;4931362;29;20052;-48
2023/03/20 11:42:56;;;;;;;9.55;4.55;;;9.90;99.90;;;;;;4929214;29;20496;-44
2023/03/20 11:45:24;;;;;;;8.95;4.45;;;9.90;99.90;;;;;;4931388;29;20036;-49
2023/03/20 11:47:54;;;;;;;11.80;4.80;;;9.90;99.90;;;;;;4916850;29;20408;-49
2023/03/20 11:50:35;;;;;;;13.00;5.30;;;10.00;99.90;;;;;;4934381;29;20380;-48
2023/03/20 11:53:02;;;;;;;11.23;4.70;;;9.90;99.90;;;;;;4932240;29;20127;-48
2023/03/20 11:55:34;;;;;;;10.45;4.43;;;9.90;99.90;;;;;;4933275;29;20383;-48
2023/03/20 11:58:03;;;;;;;9.38;4.43;;;9.80;99.90;;;;;;4931706;29;20126;-49
2023/03/20 12:00:38;;;;;;;13.18;4.97;;;9.80;99.90;;;;;;4933287;29;20047;-45
2023/03/20 12:03:31;;;;;;;11.00;4.68;;;9.80;99.90;;;;;;4933984;29;20195;-47
2023/03/20 12:05:59;;;;;;;9.82;4.90;;;9.80;99.90;;;;;;4933629;29;20193;-49
2023/03/20 12:08:29;;;;;;;10.07;5.00;;;9.70;99.90;;;;;;4933178;29;20499;-50
2023/03/20 12:10:59;;;;;;;11.50;4.90;;;9.70;99.90;;;;;;4934171;29;20213;-46
2023/03/20 12:13:32;;;;;;;9.25;4.28;;;9.70;99.90;;;;;;4933084;29;20045;-45
2023/03/20 12:16:03;;;;;;;10.57;4.28;;;9.60;99.90;;;;;;4932673;29;20053;-48
2023/03/20 12:18:35;;;;;;;8.63;3.88;;;9.60;99.90;;;;;;4932451;29;20048;-49
2023/03/20 12:21:10;;;;;;;10.07;4.57;;;9.60;99.90;;;;;;4932711;29;20448;-49
2023/03/20 12:23:47;;;;;;;10.25;4.13;;;9.50;99.90;;;;;;4931351;29;20475;-47
2023/03/20 12:26:22;;;;;;;8.38;4.00;;;9.50;99.90;;;;;;4932221;29;20506;-47
2023/03/20 12:29:12;;;;;;;10.60;4.43;;;9.50;99.90;;;;;;4929047;29;20051;-47
2023/03/20 12:32:05;;;;;;;10.75;4.30;;;9.50;99.90;;;;;;4931560;29;20039;-46
2023/03/20 12:34:40;;;;;;;9.13;4.10;;;9.40;99.90;;;;;;4932645;29;20056;-48
2023/03/20 12:37:10;;;;;;;10.07;4.30;;;9.30;99.90;;;;;;4916840;29;20051;-48
2023/03/20 12:39:42;;;;;;;10.00;4.20;;;9.30;99.90;;;;;;4933471;29;20550;-49
2023/03/20 12:42:27;;;;;;;11.32;4.53;;;9.20;99.90;;;;;;4932037;29;20444;-46
2023/03/20 12:45:13;;;;;;;11.82;4.97;;;9.20;99.90;;;;;;4935308;29;20051;-48
2023/03/20 12:47:42;;;;;;;10.18;4.22;;;9.10;99.90;;;;;;4934671;29;20055;-50
2023/03/20 12:50:26;;;;;;;10.13;4.32;;;9.10;99.90;;;;;;4935433;29;20075;-48
2023/03/20 12:53:09;;;;;;;10.32;4.93;;;9.10;99.90;;;;;;4935930;29;20484;-47
2023/03/20 12:55:38;;;;;;;11.10;4.65;;;9.10;99.90;;;;;;4934730;29;20059;-46
2023/03/20 12:58:36;;;;;;;10.13;4.90;;;9.10;99.90;;;;;;4935556;29;20488;-47
2023/03/20 13:01:05;;;;;;;13.70;5.63;;;9.10;99.90;;;;;;4933527;29;20464;-50